Time;durP1;ratioP1;P1;durP2;ratioP2;P2;SDS_P1;SDS_P2;PMS_P1;PMS_P2;Temp;Humidity;BMP_temperature;BMP_pressure;BME280_temperature;BME280_humidity;BME280_pressure;Samples;Min_cycle;Max_cycle;Signal;HPM_P1;HPM_P2
2020/12/26 00:00:58;;;;;;;;;;;;;;;2.23;100.00;100281.38;1867260;77;20126;-38
2020/12/26 00:03:25;;;;;;;;;;;;;;;2.25;100.00;100275.81;1867418;77;20272;-39
2020/12/26 00:05:52;;;;;;;;;;;;;;;2.31;100.00;100276.30;1867342;77;20138;-38
2020/12/26 00:08:20;;;;;;;;;;;;;;;2.32;100.00;100263.80;1867346;77;20454;-38
2020/12/26 00:10:48;;;;;;;;;;;;;;;2.33;100.00;100266.84;1867477;77;20229;-38
2020/12/26 00:13:16;;;;;;;;;;;;;;;2.34;100.00;100268.58;1867253;77;20178;-38
2020/12/26 00:15:44;;;;;;;;;;;;;;;2.34;100.00;100265.99;1867147;77;20285;-38
2020/12/26 00:18:11;;;;;;;;;;;;;;;2.34;100.00;100264.70;1867511;77;20142;-37
2020/12/26 00:20:39;;;;;;;;;;;;;;;2.34;100.00;100257.81;1867277;77;20229;-37
2020/12/26 00:23:06;;;;;;;;;;;;;;;2.37;100.00;100257.81;1867437;77;20138;-38
2020/12/26 00:25:35;;;;;;;;;;;;;;;2.36;100.00;100253.49;1867275;77;20233;-38
2020/12/26 00:28:05;;;;;;;;;;;;;;;2.37;100.00;100253.06;1867307;77;20158;-38
2020/12/26 00:30:33;;;;;;;;;;;;;;;2.39;100.00;100246.20;1867413;77;20193;-35
2020/12/26 00:33:01;;;;;;;;;;;;;;;2.39;100.00;100243.19;1867083;77;20130;-34
2020/12/26 00:35:29;;;;;;;;;;;;;;;2.39;100.00;100238.44;1867473;77;20237;-37
2020/12/26 00:37:57;;;;;;;;;;;;;;;2.42;100.00;100246.66;1867153;77;20248;-37
2020/12/26 00:40:24;;;;;;;;;;;;;;;2.42;100.00;100238.91;1867400;77;20226;-38
2020/12/26 00:42:52;;;;;;;;;;;;;;;2.40;100.00;100235.00;1867190;77;20241;-38
2020/12/26 00:45:20;;;;;;;;;;;;;;;2.41;100.00;100232.86;1867184;77;20304;-38
2020/12/26 00:47:48;;;;;;;;;;;;;;;2.42;100.00;100238.91;1867278;77;20442;-39
2020/12/26 00:50:16;;;;;;;;;;;;;;;2.42;100.00;100236.31;1867383;77;20233;-38
2020/12/26 00:52:44;;;;;;;;;;;;;;;2.42;100.00;100233.30;1867462;77;20166;-39
2020/12/26 00:55:13;;;;;;;;;;;;;;;2.42;100.00;100229.42;1867346;77;20400;-39
2020/12/26 00:57:42;;;;;;;;;;;;;;;2.43;100.00;100227.71;1867073;77;20281;-37
2020/12/26 01:00:10;;;;;;;;;;;;;;;2.43;100.00;100224.66;1867442;77;20174;-38
2020/12/26 01:02:39;;;;;;;;;;;;;;;2.46;100.00;100223.41;1866101;77;20198;-39
2020/12/26 01:05:07;;;;;;;;;;;;;;;2.46;100.00;100229.88;1867262;77;20135;-38
2020/12/26 01:07:35;;;;;;;;;;;;;;;2.46;100.00;100228.59;1867421;77;20181;-38
2020/12/26 01:10:03;;;;;;;;;;;;;;;2.49;100.00;100223.87;1867169;77;20134;-45
2020/12/26 01:12:31;;;;;;;;;;;;;;;2.50;100.00;100222.57;1867162;77;20123;-38
2020/12/26 01:15:01;;;;;;;;;;;;;;;2.51;100.00;100220.85;1867018;77;20444;-37
2020/12/26 01:17:28;;;;;;;;;;;;;;;2.52;100.00;100212.23;1867624;77;20229;-39
2020/12/26 01:19:58;;;;;;;;;;;;;;;2.55;100.00;100214.44;1867292;77;20134;-39
2020/12/26 01:22:26;;;;;;;;;;;;;;;2.57;100.00;100217.88;1867127;77;20142;-39
2020/12/26 01:24:54;;;;;;;;;;;;;;;2.57;100.00;100217.02;1867306;77;20158;-38
2020/12/26 01:27:22;;;;;;;;;;;;;;;2.60;100.00;100220.94;1867205;77;20193;-38
2020/12/26 01:29:50;;;;;;;;;;;;;;;2.62;100.00;100218.81;1867329;77;20185;-37
2020/12/26 01:32:18;;;;;;;;;;;;;;;2.64;100.00;100217.50;1867102;77;20400;-37
2020/12/26 01:34:46;;;;;;;;;;;;;;;2.64;100.00;100220.09;1867225;77;20185;-37
2020/12/26 01:37:14;;;;;;;;;;;;;;;2.65;100.00;100219.24;1867328;77;20196;-37
2020/12/26 01:39:42;;;;;;;;;;;;;;;2.63;100.00;100219.22;1867232;77;20146;-36
2020/12/26 01:42:10;;;;;;;;;;;;;;;2.63;100.00;100219.65;1875912;75;20173;-38
2020/12/26 01:44:39;;;;;;;;;;;;;;;2.62;100.00;100225.28;1867493;76;20162;-36
2020/12/26 01:47:07;;;;;;;;;;;;;;;2.60;100.00;100224.39;1867070;77;20133;-40
2020/12/26 01:49:35;;;;;;;;;;;;;;;2.58;100.00;100217.04;1867134;77;20193;-38
2020/12/26 01:52:05;;;;;;;;;;;;;;;2.59;100.00;100218.77;1867026;77;20182;-38
2020/12/26 01:54:34;;;;;;;;;;;;;;;2.59;100.00;100216.19;1835044;77;20439;-38
2020/12/26 01:57:03;;;;;;;;;;;;;;;2.59;100.00;100216.61;1867087;77;20241;-39
2020/12/26 01:59:31;;;;;;;;;;;;;;;2.59;100.00;100214.02;1867471;77;20170;-38
2020/12/26 02:01:58;;;;;;;;;;;;;;;2.60;100.00;100215.77;1867276;77;20371;-38
2020/12/26 02:04:26;;;;;;;;;;;;;;;2.62;100.00;100213.64;1834723;77;20372;-37
2020/12/26 02:06:57;;;;;;;;;;;;;;;2.63;100.00;100219.65;1867354;77;20122;-39
2020/12/26 02:09:24;;;;;;;;;;;;;;;2.64;100.00;100208.45;1867367;77;20122;-38
2020/12/26 02:11:52;;;;;;;;;;;;;;;2.64;100.00;100214.49;1867281;77;20146;-38
2020/12/26 02:14:20;;;;;;;;;;;;;;;2.61;100.00;100210.61;1867618;77;20193;-37
2020/12/26 02:16:50;;;;;;;;;;;;;;;2.62;100.00;100206.30;1867401;77;20236;-37
2020/12/26 02:19:20;;;;;;;;;;;;;;;2.65;100.00;100208.89;1867423;77;20415;-38
2020/12/26 02:21:48;;;;;;;;;;;;;;;2.66;100.00;100207.62;1867183;77;20134;-38
2020/12/26 02:26:50;;;;;;;;;;;;;;;2.72;100.00;100211.54;1925788;74;20182;-38
2020/12/26 02:29:17;;;;;;;;;;;;;;;2.67;100.00;100209.78;1879584;75;20120;-38
2020/12/26 02:31:45;;;;;;;;;;;;;;;2.65;100.00;100213.64;1903183;75;20195;-38
2020/12/26 02:34:13;;;;;;;;;;;;;;;2.66;100.00;100210.20;1903004;75;20191;-37
2020/12/26 02:36:41;;;;;;;;;;;;;;;2.66;100.00;100209.34;1903435;75;20140;-37
2020/12/26 02:39:09;;;;;;;;;;;;;;;2.67;100.00;100208.06;1903028;75;20129;-37
2020/12/26 02:41:38;;;;;;;;;;;;;;;2.70;100.00;100209.78;1903341;75;20465;-38
2020/12/26 02:44:06;;;;;;;;;;;;;;;2.70;100.00;100208.06;1903388;75;20239;-38
2020/12/26 02:46:33;;;;;;;;;;;;;;;2.70;100.00;100207.20;1903154;75;20227;-37
2020/12/26 02:49:01;;;;;;;;;;;;;;;2.72;100.00;100210.25;1903039;75;20156;-38
2020/12/26 02:51:28;;;;;;;;;;;;;;;2.72;100.00;100202.48;1902987;75;20159;-38
2020/12/26 02:53:56;;;;;;;;;;;;;;;2.73;100.00;100210.69;1903027;75;20176;-38
2020/12/26 02:56:24;;;;;;;;;;;;;;;2.74;100.00;100210.27;1902870;75;20156;-39
2020/12/26 02:58:52;;;;;;;;;;;;;;;2.74;100.00;100210.27;1902997;75;20120;-39
2020/12/26 03:01:19;;;;;;;;;;;;;;;2.74;100.00;100211.56;1902974;75;20169;-37
2020/12/26 03:03:47;;;;;;;;;;;;;;;2.73;100.00;100221.05;1902999;75;20140;-40
2020/12/26 03:06:14;;;;;;;;;;;;;;;2.72;100.00;100216.72;1903026;75;20196;-37
2020/12/26 03:08:42;;;;;;;;;;;;;;;2.73;100.00;100213.28;1903096;75;20136;-38
2020/12/26 03:11:10;;;;;;;;;;;;;;;2.75;100.00;100212.00;1903078;75;20235;-39
2020/12/26 03:13:38;;;;;;;;;;;;;;;2.76;100.00;100217.59;1903316;75;20228;-38
2020/12/26 03:16:06;;;;;;;;;;;;;;;2.77;100.00;100222.78;1902972;75;20160;-38
2020/12/26 03:18:35;;;;;;;;;;;;;;;2.82;100.00;100225.42;1896849;75;21064;-38
2020/12/26 03:21:04;;;;;;;;;;;;;;;2.83;100.00;100224.55;1866619;75;20162;-38
2020/12/26 03:23:32;;;;;;;;;;;;;;;2.84;100.00;100223.70;1868266;77;20142;-38
2020/12/26 03:26:01;;;;;;;;;;;;;;;2.85;100.00;100219.38;1867380;77;20192;-38
2020/12/26 03:28:30;;;;;;;;;;;;;;;2.84;100.00;100223.70;1874941;76;20120;-38
2020/12/26 03:30:58;;;;;;;;;;;;;;;2.83;100.00;100219.80;1868057;77;20120;-38
2020/12/26 03:33:26;;;;;;;;;;;;;;;2.82;100.00;100218.09;1868064;77;20183;-38
2020/12/26 03:35:54;;;;;;;;;;;;;;;2.84;100.00;100222.83;1867976;77;20132;-38
2020/12/26 03:38:22;;;;;;;;;;;;;;;2.84;100.00;100222.40;1867316;77;20164;-39
2020/12/26 03:40:50;;;;;;;;;;;;;;;2.84;100.00;100217.22;1867438;76;20184;-40
2020/12/26 03:43:18;;;;;;;;;;;;;;;2.83;100.00;100216.78;1867065;77;20243;-40
2020/12/26 03:45:45;;;;;;;;;;;;;;;2.84;100.00;100217.64;1867170;77;20199;-39
2020/12/26 03:48:13;;;;;;;;;;;;;;;2.83;100.00;100214.61;1867388;76;20469;-38
2020/12/26 03:50:41;;;;;;;;;;;;;;;2.82;100.00;100211.19;1868833;77;20226;-40
2020/12/26 03:53:10;;;;;;;;;;;;;;;2.82;100.00;100215.50;1871201;77;20202;-40
2020/12/26 03:55:38;;;;;;;;;;;;;;;2.84;100.00;100213.77;1871033;77;20170;-40
2020/12/26 03:58:06;;;;;;;;;;;;;;;2.85;100.00;100219.38;1836278;77;20446;-39
2020/12/26 04:00:34;;;;;;;;;;;;;;;2.85;100.00;100220.25;1869795;75;20267;-39
2020/12/26 04:03:02;;;;;;;;;;;;;;;2.87;100.00;100224.16;1867493;76;20140;-39
2020/12/26 04:05:31;;;;;;;;;;;;;;;2.85;100.00;100221.97;1867349;77;20383;-39
2020/12/26 04:08:00;;;;;;;;;;;;;;;2.85;100.00;100221.55;1867464;77;20438;-39
2020/12/26 04:10:29;;;;;;;;;;;;;;;2.87;100.00;100224.16;1867383;77;20207;-40
2020/12/26 04:12:57;;;;;;;;;;;;;;;2.87;100.00;100222.44;1867267;76;20223;-39
2020/12/26 04:15:25;;;;;;;;;;;;;;;2.90;100.00;100226.75;1867319;77;20259;-39
2020/12/26 04:17:52;;;;;;;;;;;;;;;2.91;100.00;100232.37;1867271;76;20220;-39
2020/12/26 04:20:21;;;;;;;;;;;;;;;2.92;100.00;100227.63;1867421;75;20140;-40
2020/12/26 04:22:48;;;;;;;;;;;;;;;2.91;100.00;100224.17;1868046;75;20156;-40
2020/12/26 04:25:17;;;;;;;;;;;;;;;2.90;100.00;100221.57;1867191;76;20457;-40
2020/12/26 04:27:46;;;;;;;;;;;;;;;2.90;100.00;100224.16;1867260;77;20267;-39
2020/12/26 04:30:15;;;;;;;;;;;;;;;2.91;100.00;100220.30;1867470;76;20180;-40
2020/12/26 04:32:43;;;;;;;;;;;;;;;2.96;100.00;100217.72;1867256;76;20148;-39
2020/12/26 04:35:11;;;;;;;;;;;;;;;2.96;100.00;100224.20;1867436;76;20188;-39
2020/12/26 04:37:38;;;;;;;;;;;;;;;2.99;100.00;100225.09;1870605;77;20182;-40
2020/12/26 04:40:06;;;;;;;;;;;;;;;3.00;100.00;100229.85;1870764;77;20150;-40
2020/12/26 04:42:34;;;;;;;;;;;;;;;3.00;100.00;100228.55;1870819;77;20142;-39
2020/12/26 04:45:03;;;;;;;;;;;;;;;3.00;100.00;100238.91;1871101;77;20158;-38
2020/12/26 04:47:33;;;;;;;;;;;;;;;3.02;100.00;100242.39;1871081;77;20135;-40
2020/12/26 04:50:01;;;;;;;;;;;;;;;3.03;100.00;100238.91;1836597;77;20166;-38
2020/12/26 04:52:30;;;;;;;;;;;;;;;3.04;100.00;100248.00;1840013;75;20139;-39
2020/12/26 04:54:58;;;;;;;;;;;;;;;3.06;100.00;100243.70;1866831;75;20162;-40
2020/12/26 04:57:26;;;;;;;;;;;;;;;3.06;100.00;100239.82;1866370;76;20240;-39
2020/12/26 04:59:53;;;;;;;;;;;;;;;3.08;100.00;100247.61;1846956;77;20170;-39
2020/12/26 05:02:22;;;;;;;;;;;;;;;3.06;100.00;100243.70;1867105;77;20312;-39
2020/12/26 05:04:50;;;;;;;;;;;;;;;3.06;100.00;100250.17;1867245;77;20127;-38
2020/12/26 05:07:18;;;;;;;;;;;;;;;3.06;100.00;100253.19;1868245;75;20140;-39
2020/12/26 05:09:46;;;;;;;;;;;;;;;3.05;100.00;100255.34;1866709;76;20201;-39
2020/12/26 05:12:14;;;;;;;;;;;;;;;3.06;100.00;100252.77;1867136;77;20150;-39
2020/12/26 05:14:41;;;;;;;;;;;;;;;3.08;100.00;100256.67;1867580;77;20221;-39
2020/12/26 05:17:09;;;;;;;;;;;;;;;3.06;100.00;100254.48;1867322;77;20257;-39
2020/12/26 05:19:38;;;;;;;;;;;;;;;3.10;100.00;100254.51;1867547;77;20234;-39
2020/12/26 05:22:05;;;;;;;;;;;;;;;3.11;100.00;100256.25;1848454;77;20273;-39
2020/12/26 05:24:35;;;;;;;;;;;;;;;3.09;100.00;100255.36;1834663;77;20190;-39
2020/12/26 05:27:02;;;;;;;;;;;;;;;3.06;100.00;100254.06;1867348;77;20146;-38
2020/12/26 05:29:31;;;;;;;;;;;;;;;3.05;100.00;100260.52;1867439;77;20142;-39
2020/12/26 05:31:59;;;;;;;;;;;;;;;3.05;100.00;100265.70;1867261;77;20393;-38
2020/12/26 05:34:38;;;;;;;;;;;;;;;3.06;100.00;100267.44;1862858;77;20162;-40
2020/12/26 05:37:05;;;;;;;;;;;;;;;3.07;100.00;100266.59;1865613;75;20271;-38
2020/12/26 05:39:36;;;;;;;;;;;;;;;3.09;100.00;100270.03;1866900;77;20185;-38
2020/12/26 05:42:04;;;;;;;;;;;;;;;3.08;100.00;100267.89;1866804;77;20221;-40
2020/12/26 05:44:37;;;;;;;;;;;;;;;3.08;100.00;100273.08;1868617;75;20431;-39
2020/12/26 05:47:06;;;;;;;;;;;;;;;3.07;100.00;100277.81;1867238;76;20235;-39
2020/12/26 05:49:36;;;;;;;;;;;;;;;3.07;100.00;100275.22;1867105;76;20484;-40
2020/12/26 05:52:08;;;;;;;;;;;;;;;3.07;100.00;100273.06;1867968;75;20256;-39
2020/12/26 05:54:37;;;;;;;;;;;;;;;3.09;100.00;100282.98;1865960;75;20193;-39
2020/12/26 05:57:14;;;;;;;;;;;;;;;3.10;100.00;100285.58;1866726;76;20179;-39
2020/12/26 05:59:50;;;;;;;;;;;;;;;3.12;100.00;100283.02;1866798;76;20169;-38
2020/12/26 06:02:26;;;;;;;;;;;;;;;3.10;100.00;100282.13;1875424;75;20290;-38
2020/12/26 06:05:01;;;;;;;;;;;;;;;3.07;100.00;100293.77;1881661;75;20159;-39
2020/12/26 06:07:33;;;;;;;;;;;;;;;3.06;100.00;100291.61;1866885;77;20185;-39
2020/12/26 06:10:03;;;;;;;;;;;;;;;3.08;100.00;100293.80;1878056;75;20295;-40
2020/12/26 06:12:31;;;;;;;;;;;;;;;3.08;100.00;100299.40;1876301;75;20126;-39
2020/12/26 06:14:59;;;;;;;;;;;;;;;3.01;100.00;100299.78;1876329;75;20152;-40
2020/12/26 06:17:29;;;;;;;;;;;;;;;2.96;100.00;100300.58;1880968;75;20749;-40
2020/12/26 06:20:07;;;;;;;;;;;;;;;2.93;100.00;100304.45;1869923;75;20165;-38
2020/12/26 06:22:47;;;;;;;;;;;;;;;2.90;100.00;100314.34;1868523;75;20176;-42
2020/12/26 06:26:50;;;;;;;;;;;;;;;2.95;100.00;100310.52;1903091;74;20768;-40
2020/12/26 06:29:18;;;;;;;;;;;;;;;2.94;100.00;100313.96;1839825;77;20162;-38
2020/12/26 06:31:46;;;;;;;;;;;;;;;2.97;100.00;100315.27;1875213;75;20141;-40
2020/12/26 06:34:18;;;;;;;;;;;;;;;2.99;100.00;100316.15;1867170;77;20288;-41
2020/12/26 06:36:45;;;;;;;;;;;;;;;2.98;100.00;100313.12;1867447;76;20188;-41
2020/12/26 06:39:32;;;;;;;;;;;;;;;2.98;100.00;100315.70;1878525;75;20221;-39
2020/12/26 06:42:17;;;;;;;;;;;;;;;2.98;100.00;100313.12;1872599;75;20190;-40
2020/12/26 06:44:46;;;;;;;;;;;;;;;2.97;100.00;100313.54;1902364;75;20171;-41
2020/12/26 06:47:37;;;;;;;;;;;;;;;2.97;100.00;100307.49;1896100;75;20301;-42
2020/12/26 06:50:21;;;;;;;;;;;;;;;2.95;100.00;100306.64;1873095;75;20164;-40
2020/12/26 06:52:49;;;;;;;;;;;;;;;2.98;100.00;100309.23;1867260;77;20135;-40
2020/12/26 06:55:42;;;;;;;;;;;;;;;2.96;100.00;100319.56;1870404;75;20195;-39
2020/12/26 06:58:27;;;;;;;;;;;;;;;2.93;100.00;100324.74;1869417;75;20273;-41
2020/12/26 07:00:55;;;;;;;;;;;;;;;2.89;100.00;100320.83;1875755;75;20261;-39
2020/12/26 07:03:28;;;;;;;;;;;;;;;2.84;100.00;100323.36;1867199;77;20242;-40
2020/12/26 07:05:54;;;;;;;;;;;;;;;2.85;100.00;100334.58;1878507;75;20186;-41
2020/12/26 07:08:25;;;;;;;;;;;;;;;2.85;100.00;100327.69;1902258;75;20266;-41
2020/12/26 07:10:53;;;;;;;;;;;;;;;2.85;100.00;100331.99;1875494;75;20227;-39
2020/12/26 07:13:44;;;;;;;;;;;;;;;2.86;100.00;100330.72;1868543;75;20949;-40
2020/12/26 07:16:36;;;;;;;;;;;;;;;2.86;100.00;100332.02;1868250;75;20286;-38
2020/12/26 07:19:22;;;;;;;;;;;;;;;2.83;100.00;100335.86;1875718;75;20466;-39
2020/12/26 07:21:54;;;;;;;;;;;;;;;2.82;100.00;100345.80;1844196;75;20237;-41
2020/12/26 07:24:34;;;;;;;;;;;;;;;2.77;100.00;100350.91;1880275;75;20128;-41
2020/12/26 07:27:17;;;;;;;;;;;;;;;2.74;100.00;100347.44;1872652;75;20148;-40
2020/12/26 07:29:53;;;;;;;;;;;;;;;2.73;100.00;100338.81;1867462;75;20172;-41
2020/12/26 07:32:43;;;;;;;;;;;;;;;2.72;100.00;100340.95;1896983;75;20186;-41
2020/12/26 07:35:16;;;;;;;;;;;;;;;2.72;100.00;100349.14;1895477;75;20214;-39
2020/12/26 07:37:45;;;;;;;;;;;;;;;2.71;100.00;100351.28;1867219;75;20202;-40
2020/12/26 07:40:20;;;;;;;;;;;;;;;2.69;100.00;100351.72;1871145;75;20202;-41
2020/12/26 07:42:48;;;;;;;;;;;;;;;2.68;100.00;100357.74;1870399;75;20431;-39
2020/12/26 07:45:21;;;;;;;;;;;;;;;2.67;100.00;100366.36;1869055;75;20146;-39
2020/12/26 07:47:51;;;;;;;;;;;;;;;2.66;100.00;100369.79;1873159;75;20176;-40
2020/12/26 07:50:20;;;;;;;;;;;;;;;2.65;100.00;100373.22;1875205;75;20496;-40
2020/12/26 07:52:48;;;;;;;;;;;;;;;2.62;100.00;100378.39;1869918;75;20185;-40
2020/12/26 07:55:16;;;;;;;;;;;;;;;2.59;100.00;100382.22;1866701;77;20199;-41
2020/12/26 07:57:43;;;;;;;;;;;;;;;2.57;100.00;100380.03;1869804;75;20376;-41
2020/12/26 08:00:24;;;;;;;;;;;;;;;2.56;100.00;100388.67;1870897;75;20194;-41
2020/12/26 08:02:58;;;;;;;;;;;;;;;2.55;100.00;100395.99;1884030;75;20302;-41
2020/12/26 08:05:30;;;;;;;;;;;;;;;2.52;100.00;100390.77;1872656;75;20150;-39
2020/12/26 08:07:58;;;;;;;;;;;;;;;2.49;100.00;100394.64;1874908;75;20181;-39
2020/12/26 08:10:27;;;;;;;;;;;;;;;2.44;100.00;100393.69;1873258;75;20169;-39
2020/12/26 08:12:57;;;;;;;;;;;;;;;2.44;100.00;100401.03;1875353;75;20113;-37
2020/12/26 08:15:29;;;;;;;;;;;;;;;2.40;100.00;100401.44;1868262;75;20189;-40
2020/12/26 08:17:59;;;;;;;;;;;;;;;2.38;100.00;100399.67;1866445;76;20184;-39
2020/12/26 08:20:30;;;;;;;;;;;;;;;2.37;100.00;100410.86;1866566;77;20191;-40
2020/12/26 08:22:57;;;;;;;;;;;;;;;2.33;100.00;100409.10;1875239;75;20276;-40
2020/12/26 08:25:26;;;;;;;;;;;;;;;2.32;100.00;100408.66;1867735;75;20336;-41
2020/12/26 08:27:54;;;;;;;;;;;;;;;2.31;100.00;100401.73;1867601;75;20413;-39
2020/12/26 08:30:29;;;;;;;;;;;;;;;2.30;100.00;100398.28;1865656;75;20225;-40
2020/12/26 08:33:17;;;;;;;;;;;;;;;2.31;100.00;100409.50;1878092;75;20215;-39
2020/12/26 08:36:10;;;;;;;;;;;;;;;2.31;100.00;100414.67;1867538;76;20178;-40
2020/12/26 08:38:48;;;;;;;;;;;;;;;2.26;100.00;100420.22;1869690;75;20203;-40
2020/12/26 08:41:18;;;;;;;;;;;;;;;2.26;100.00;100418.92;1876355;75;20179;-40
2020/12/26 08:43:46;;;;;;;;;;;;;;;2.25;100.00;100417.19;1865757;75;20137;-41
2020/12/26 08:46:15;;;;;;;;;;;;;;;2.26;100.00;100424.09;1871129;75;20166;-39
2020/12/26 08:48:43;;;;;;;;;;;;;;;2.25;100.00;100427.53;1872934;75;20144;-41
2020/12/26 08:51:17;;;;;;;;;;;;;;;2.24;100.00;100428.38;1868532;75;20260;-39
2020/12/26 08:53:45;;;;;;;;;;;;;;;2.22;100.00;100435.27;1866588;75;20170;-39
2020/12/26 08:56:13;;;;;;;;;;;;;;;2.20;100.00;100446.01;1867863;75;20423;-39
2020/12/26 08:58:49;;;;;;;;;;;;;;;2.16;100.00;100443.82;1850550;75;20211;-39
2020/12/26 09:01:16;;;;;;;;;;;;;;;2.15;100.00;100445.09;1870126;75;20443;-39
2020/12/26 09:03:49;;;;;;;;;;;;;;;2.11;100.00;100440.70;1871083;75;20214;-46
2020/12/26 09:06:17;;;;;;;;;;;;;;;2.09;100.00;100439.41;1872639;75;20420;-42
2020/12/26 09:08:45;;;;;;;;;;;;;;;2.07;100.00;100440.23;1866026;77;20284;-40
2020/12/26 09:11:12;;;;;;;;;;;;;;;2.05;100.00;100465.19;1866973;75;20148;-40
2020/12/26 09:13:43;;;;;;;;;;;;;;;2.00;100.00;100453.08;1866636;75;20182;-38
2020/12/26 09:16:12;;;;;;;;;;;;;;;2.00;100.00;100449.63;1871607;75;20219;-39
2020/12/26 09:18:49;;;;;;;;;;;;;;;1.96;100.00;100444.84;1873201;75;20190;-41
2020/12/26 09:21:26;;;;;;;;;;;;;;;1.92;100.00;100445.62;1873124;75;20285;-40
2020/12/26 09:23:55;;;;;;;;;;;;;;;1.87;100.00;100454.17;1868399;75;20313;-42
2020/12/26 09:26:33;;;;;;;;;;;;;;;1.87;100.00;100460.21;1875618;75;20197;-40
2020/12/26 09:29:01;;;;;;;;;;;;;;;1.86;100.00;100455.89;1873749;75;20478;-41
2020/12/26 09:31:31;;;;;;;;;;;;;;;1.85;100.00;100468.78;1873118;75;20190;-40
2020/12/26 09:34:01;;;;;;;;;;;;;;;1.83;100.00;100462.32;1871730;75;20179;-41
2020/12/26 09:36:29;;;;;;;;;;;;;;;1.82;100.00;100470.91;1872348;75;20188;-40
2020/12/26 09:38:57;;;;;;;;;;;;;;;1.80;100.00;100479.06;1871417;75;20280;-42
2020/12/26 09:41:25;;;;;;;;;;;;;;;1.78;100.00;100489.79;1867597;75;20158;-42
2020/12/26 09:43:54;;;;;;;;;;;;;;;1.77;100.00;100497.54;1866817;75;20181;-42
2020/12/26 09:46:22;;;;;;;;;;;;;;;1.76;100.00;100504.42;1871271;75;20158;-42
2020/12/26 09:48:50;;;;;;;;;;;;;;;1.75;100.00;100509.56;1869773;75;20142;-40
2020/12/26 09:51:19;;;;;;;;;;;;;;;1.73;100.00;100517.28;1874739;75;20505;-41
2020/12/26 09:53:49;;;;;;;;;;;;;;;1.73;100.00;100510.82;1867495;75;20280;-40
2020/12/26 09:56:17;;;;;;;;;;;;;;;1.73;100.00;100502.20;1866638;75;21103;-42
2020/12/26 09:58:45;;;;;;;;;;;;;;;1.74;100.00;100513.86;1866384;75;20178;-39
2020/12/26 10:01:18;;;;;;;;;;;;;;;1.71;100.00;100524.13;1875280;75;20189;-38
2020/12/26 10:03:47;;;;;;;;;;;;;;;1.71;100.00;100525.42;1870664;75;20200;-39
2020/12/26 10:06:16;;;;;;;;;;;;;;;1.71;100.00;100522.84;1876520;75;20159;-39
2020/12/26 10:08:44;;;;;;;;;;;;;;;1.74;100.00;100515.57;1873768;75;20159;-40
2020/12/26 10:11:14;;;;;;;;;;;;;;;1.73;100.00;100508.23;1873720;75;20170;-39
2020/12/26 10:13:41;;;;;;;;;;;;;;;1.74;100.00;100511.69;1872666;75;20189;-38
2020/12/26 10:16:10;;;;;;;;;;;;;;;1.76;100.00;100497.09;1869867;75;20286;-40
2020/12/26 10:18:39;;;;;;;;;;;;;;;1.79;100.00;100499.28;1877752;75;20376;-39
2020/12/26 10:21:06;;;;;;;;;;;;;;;1.79;100.00;100504.87;1870147;75;20209;-40
2020/12/26 10:26:49;;;;;;;;;;;;;;;1.80;100.00;100500.16;1898526;74;20187;-38
2020/12/26 10:29:18;;;;;;;;;;;;;;;1.75;100.00;100501.80;1853447;75;20407;-40
2020/12/26 10:31:46;;;;;;;;;;;;;;;1.74;100.00;100489.30;1871315;75;20158;-40
2020/12/26 10:34:14;;;;;;;;;;;;;;;1.76;100.00;100488.92;1874977;75;20429;-41
2020/12/26 10:36:43;;;;;;;;;;;;;;;1.77;100.00;100485.91;1868746;75;20259;-41
2020/12/26 10:39:11;;;;;;;;;;;;;;;1.78;100.00;100484.62;1867888;75;20466;-39
2020/12/26 10:41:44;;;;;;;;;;;;;;;1.80;100.00;100486.81;1880764;75;20263;-39
2020/12/26 10:44:12;;;;;;;;;;;;;;;1.79;100.00;100491.53;1877115;75;20162;-40
2020/12/26 10:46:42;;;;;;;;;;;;;;;1.76;100.00;100485.05;1847602;75;20296;-38
2020/12/26 10:49:12;;;;;;;;;;;;;;;1.80;100.00;100491.11;1814570;75;20466;-41
2020/12/26 10:51:39;;;;;;;;;;;;;;;1.84;100.00;100496.76;1868405;75;20435;-40
2020/12/26 10:54:08;;;;;;;;;;;;;;;1.88;100.00;100499.44;1868874;75;20190;-38
2020/12/26 10:56:35;;;;;;;;;;;;;;;1.91;100.00;100517.98;1871604;75;20556;-39
2020/12/26 10:59:03;;;;;;;;;;;;;;;1.91;100.00;100540.83;1868999;75;20188;-39
2020/12/26 11:01:32;;;;;;;;;;;;;;;1.88;100.00;100558.89;1870397;75;20209;-41
2020/12/26 11:03:59;;;;;;;;;;;;;;;1.86;100.00;100557.98;1868390;75;20504;-40
2020/12/26 11:06:27;;;;;;;;;;;;;;;1.84;100.00;100560.95;1871383;75;20458;-40
2020/12/26 11:08:55;;;;;;;;;;;;;;;1.81;100.00;100559.63;1868600;75;20206;-38
2020/12/26 11:11:23;;;;;;;;;;;;;;;1.79;100.00;100544.93;1871165;75;20463;-38
2020/12/26 11:13:51;;;;;;;;;;;;;;;1.81;100.00;100538.08;1876838;75;20272;-39
2020/12/26 11:16:18;;;;;;;;;;;;;;;1.81;100.00;100535.50;1873450;75;20362;-41
2020/12/26 11:18:46;;;;;;;;;;;;;;;1.79;100.00;100543.22;1873809;75;20182;-40
2020/12/26 11:21:17;;;;;;;;;;;;;;;1.78;100.00;100541.48;1876937;75;20176;-38
2020/12/26 11:23:45;;;;;;;;;;;;;;;1.79;100.00;100553.56;1872129;75;20442;-39
2020/12/26 11:26:14;;;;;;;;;;;;;;;1.78;100.00;100535.02;1866464;75;20519;-38
2020/12/26 11:28:43;;;;;;;;;;;;;;;1.77;100.00;100523.39;1869745;75;20201;-38
2020/12/26 11:31:12;;;;;;;;;;;;;;;1.75;100.00;100534.11;1877676;75;20499;-40
2020/12/26 11:33:42;;;;;;;;;;;;;;;1.71;100.00;100533.17;1873937;75;20958;-42
2020/12/26 11:36:09;;;;;;;;;;;;;;;1.70;100.00;100534.05;1870132;75;20221;-41
2020/12/26 11:38:37;;;;;;;;;;;;;;;1.71;100.00;100531.87;1878968;75;20246;-39
2020/12/26 11:41:05;;;;;;;;;;;;;;;1.73;100.00;100540.53;1865818;75;20279;-42
2020/12/26 11:43:32;;;;;;;;;;;;;;;1.78;100.00;100558.70;1878000;75;20186;-38
2020/12/26 11:46:00;;;;;;;;;;;;;;;1.81;100.00;100575.14;1868241;75;20288;-41
2020/12/26 11:48:28;;;;;;;;;;;;;;;1.79;100.00;100588.87;1867110;75;20282;-41
2020/12/26 11:50:57;;;;;;;;;;;;;;;1.76;100.00;100589.70;1868581;75;20479;-38
2020/12/26 11:53:24;;;;;;;;;;;;;;;1.74;100.00;100592.67;1870914;75;20292;-39
2020/12/26 11:55:58;;;;;;;;;;;;;;;1.71;100.00;100596.48;1867514;75;20279;-40
2020/12/26 11:58:27;;;;;;;;;;;;;;;1.69;100.00;100594.31;1868971;75;20174;-39
2020/12/26 12:00:55;;;;;;;;;;;;;;;1.66;100.00;100590.80;1866229;75;20269;-40
2020/12/26 12:03:23;;;;;;;;;;;;;;;1.66;100.00;100574.87;1876632;75;20196;-39
2020/12/26 12:05:50;;;;;;;;;;;;;;;1.65;100.00;100573.55;1872469;75;20209;-40
2020/12/26 12:08:18;;;;;;;;;;;;;;;1.64;100.00;100583.46;1870341;75;20174;-44
2020/12/26 12:10:45;;;;;;;;;;;;;;;1.63;100.00;100585.17;1867674;75;20208;-40
2020/12/26 12:13:14;;;;;;;;;;;;;;;1.64;100.00;100588.21;1868100;75;20219;-42
2020/12/26 12:15:42;;;;;;;;;;;;;;;1.66;100.00;100598.55;1869732;75;20276;-41
2020/12/26 12:18:10;;;;;;;;;;;;;;;1.68;100.00;100594.28;1866678;75;20209;-42
2020/12/26 12:20:38;;;;;;;;;;;;;;;1.65;100.00;100609.30;1867133;75;20495;-40
2020/12/26 12:23:06;;;;;;;;;;;;;;;1.64;100.00;100622.22;1871879;75;20851;-40
2020/12/26 12:25:34;;;;;;;;;;;;;;;1.63;100.00;100631.68;1867100;75;20242;-40
2020/12/26 12:28:02;;;;;;;;;;;;;;;1.63;100.00;100630.80;1865979;77;20309;-41
2020/12/26 12:30:56;;;;;;;;;;;;;;;1.59;100.00;100647.53;1851141;75;20213;-42
2020/12/26 12:33:28;;;;;;;;;;;;;;;1.55;100.00;100661.66;1857146;75;20775;-41
2020/12/26 12:36:03;;;;;;;;;;;;;;;1.54;100.00;100654.75;1874901;75;20219;-40
2020/12/26 12:38:26;;;;;;;;;;;;;;;1.54;100.00;100657.34;1869181;75;20457;-41
2020/12/26 12:40:53;;;;;;;;;;;;;;;1.51;100.00;100663.30;1868904;75;20221;-40
2020/12/26 12:43:21;;;;;;;;;;;;;;;1.48;100.00;100662.39;1867326;75;20148;-44
2020/12/26 12:45:49;;;;;;;;;;;;;;;1.45;100.00;100661.89;1869789;75;21077;-41
2020/12/26 12:48:17;;;;;;;;;;;;;;;1.41;100.00;100657.94;1872521;75;20178;-40
2020/12/26 12:50:45;;;;;;;;;;;;;;;1.40;100.00;100671.69;1868759;75;20284;-41
2020/12/26 12:53:12;;;;;;;;;;;;;;;1.34;100.00;100679.31;1857295;77;20177;-41
2020/12/26 12:55:40;;;;;;;;;;;;;;;1.28;100.00;100685.23;1868076;75;20405;-42